sensor_id;sensor_type;location;lat;lon;timestamp;temperature;humidity
20881;DHT22;10600;53.096;8.802;2023-05-20T00:00:37;13.20;99.90
20881;DHT22;10600;53.096;8.802;2023-05-20T00:01:38;13.20;99.90
20881;DHT22;10600;53.096;8.802;2023-05-20T00:02:39;13.20;99.90
20881;DHT22;10600;53.096;8.802;2023-05-20T00:03:40;13.10;99.90
20881;DHT22;10600;53.096;8.802;2023-05-20T00:04:40;13.10;99.90
20881;DHT22;10600;53.096;8.802;2023-05-20T00:05:41;13.10;99.90
20881;DHT22;10600;53.096;8.802;2023-05-20T00:06:42;13.10;99.90
20881;DHT22;10600;53.096;8.802;2023-05-20T00:07:43;13.10;99.90
20881;DHT22;10600;53.096;8.802;2023-05-20T00:08:43;13.10;99.90
20881;DHT22;10600;53.096;8.802;2023-05-20T00:09:44;13.00;99.90
20881;DHT22;10600;53.096;8.802;2023-05-20T00:10:45;13.00;99.90
20881;DHT22;10600;53.096;8.802;2023-05-20T00:11:46;13.00;99.90
20881;DHT22;10600;53.096;8.802;2023-05-20T00:12:46;13.00;99.90
20881;DHT22;10600;53.096;8.802;2023-05-20T00:13:47;13.00;99.90
20881;DHT22;10600;53.096;8.802;2023-05-20T00:14:48;13.00;99.90
20881;DHT22;10600;53.096;8.802;2023-05-20T00:15:48;13.00;99.90
20881;DHT22;10600;53.096;8.802;2023-05-20T00:16:49;12.90;99.90
20881;DHT22;10600;53.096;8.802;2023-05-20T00:17:49;12.90;99.90
20881;DHT22;10600;53.096;8.802;2023-05-20T00:18:50;12.90;99.90
20881;DHT22;10600;53.096;8.802;2023-05-20T00:19:51;12.90;99.90
20881;DHT22;10600;53.096;8.802;2023-05-20T00:20:52;12.90;99.90
20881;DHT22;10600;53.096;8.802;2023-05-20T00:21:53;12.80;99.90
20881;DHT22;10600;53.096;8.802;2023-05-20T00:22:56;12.80;99.90
20881;DHT22;10600;53.096;8.802;2023-05-20T00:23:57;12.80;99.90
20881;DHT22;10600;53.096;8.802;2023-05-20T00:24:58;12.80;99.90
20881;DHT22;10600;53.096;8.802;2023-05-20T00:25:58;12.70;99.90
20881;DHT22;10600;53.096;8.802;2023-05-20T00:26:59;12.70;99.90
20881;DHT22;10600;53.096;8.802;2023-05-20T00:27:59;12.70;99.90
20881;DHT22;10600;53.096;8.802;2023-05-20T00:29:00;12.70;99.90
20881;DHT22;10600;53.096;8.802;2023-05-20T00:30:01;12.70;99.90
20881;DHT22;10600;53.096;8.802;2023-05-20T00:31:02;12.60;99.90
20881;DHT22;10600;53.096;8.802;2023-05-20T00:32:03;12.60;99.90
20881;DHT22;10600;53.096;8.802;2023-05-20T00:33:03;12.50;99.90
20881;DHT22;10600;53.096;8.802;2023-05-20T00:34:04;12.50;99.90
20881;DHT22;10600;53.096;8.802;2023-05-20T00:35:05;12.50;99.90
20881;DHT22;10600;53.096;8.802;2023-05-20T00:36:06;12.50;99.90
20881;DHT22;10600;53.096;8.802;2023-05-20T00:37:06;12.40;99.90
20881;DHT22;10600;53.096;8.802;2023-05-20T00:38:07;12.40;99.90
20881;DHT22;10600;53.096;8.802;2023-05-20T00:39:07;12.40;99.90
20881;DHT22;10600;53.096;8.802;2023-05-20T00:40:08;12.40;99.90
20881;DHT22;10600;53.096;8.802;2023-05-20T00:41:09;12.30;99.90
20881;DHT22;10600;53.096;8.802;2023-05-20T00:42:09;12.30;99.90
20881;DHT22;10600;53.096;8.802;2023-05-20T00:43:10;12.30;99.90
20881;DHT22;10600;53.096;8.802;2023-05-20T00:44:11;12.20;99.90
20881;DHT22;10600;53.096;8.802;2023-05-20T00:45:11;12.20;99.90
20881;DHT22;10600;53.096;8.802;2023-05-20T00:46:12;12.20;99.90
20881;DHT22;10600;53.096;8.802;2023-05-20T00:47:17;12.20;99.90
20881;DHT22;10600;53.096;8.802;2023-05-20T00:48:19;12.10;99.90
20881;DHT22;10600;53.096;8.802;2023-05-20T00:49:21;12.10;99.90
20881;DHT22;10600;53.096;8.802;2023-05-20T00:50:23;12.10;99.90
20881;DHT22;10600;53.096;8.802;2023-05-20T00:51:23;12.10;99.90
20881;DHT22;10600;53.096;8.802;2023-05-20T00:52:24;12.10;99.90
20881;DHT22;10600;53.096;8.802;2023-05-20T00:53:25;12.10;99.90
20881;DHT22;10600;53.096;8.802;2023-05-20T00:54:26;12.10;99.90
20881;DHT22;10600;53.096;8.802;2023-05-20T00:55:26;12.00;99.90
20881;DHT22;10600;53.096;8.802;2023-05-20T00:56:28;12.00;99.90
20881;DHT22;10600;53.096;8.802;2023-05-20T00:57:29;12.00;99.90
20881;DHT22;10600;53.096;8.802;2023-05-20T00:58:30;12.00;99.90
20881;DHT22;10600;53.096;8.802;2023-05-20T00:59:35;11.90;99.90
20881;DHT22;10600;53.096;8.802;2023-05-20T01:00:36;11.90;99.90
20881;DHT22;10600;53.096;8.802;2023-05-20T01:01:37;11.90;99.90
20881;DHT22;10600;53.096;8.802;2023-05-20T01:02:37;11.90;99.90
20881;DHT22;10600;53.096;8.802;2023-05-20T01:03:39;11.90;99.90
20881;DHT22;10600;53.096;8.802;2023-05-20T01:04:40;11.90;99.90
20881;DHT22;10600;53.096;8.802;2023-05-20T01:05:45;11.80;99.90
20881;DHT22;10600;53.096;8.802;2023-05-20T01:06:46;11.80;99.90
20881;DHT22;10600;53.096;8.802;2023-05-20T01:07:47;11.80;99.90
20881;DHT22;10600;53.096;8.802;2023-05-20T01:08:47;11.70;99.90
20881;DHT22;10600;53.096;8.802;2023-05-20T01:09:48;11.70;99.90
20881;DHT22;10600;53.096;8.802;2023-05-20T01:11:05;11.60;99.90
20881;DHT22;10600;53.096;8.802;2023-05-20T01:12:15;11.60;99.90
20881;DHT22;10600;53.096;8.802;2023-05-20T01:13:19;11.60;99.90
20881;DHT22;10600;53.096;8.802;2023-05-20T01:14:23;11.60;99.90
20881;DHT22;10600;53.096;8.802;2023-05-20T01:15:26;11.50;99.90
20881;DHT22;10600;53.096;8.802;2023-05-20T01:16:28;11.50;99.90
20881;DHT22;10600;53.096;8.802;2023-05-20T01:17:30;11.50;99.90
20881;DHT22;10600;53.096;8.802;2023-05-20T01:18:38;11.40;99.90
20881;DHT22;10600;53.096;8.802;2023-05-20T01:19:41;11.40;99.90
20881;DHT22;10600;53.096;8.802;2023-05-20T01:20:46;11.40;99.90
20881;DHT22;10600;53.096;8.802;2023-05-20T01:21:49;11.40;99.90
20881;DHT22;10600;53.096;8.802;2023-05-20T01:22:55;11.40;99.90
20881;DHT22;10600;53.096;8.802;2023-05-20T01:23:56;11.30;99.90
20881;DHT22;10600;53.096;8.802;2023-05-20T01:24:57;11.30;99.90
20881;DHT22;10600;53.096;8.802;2023-05-20T01:25:58;11.30;99.90
20881;DHT22;10600;53.096;8.802;2023-05-20T01:26:58;11.30;99.90
20881;DHT22;10600;53.096;8.802;2023-05-20T01:27:59;11.30;99.90
20881;DHT22;10600;53.096;8.802;2023-05-20T01:29:00;11.30;99.90
20881;DHT22;10600;53.096;8.802;2023-05-20T01:30:04;11.30;99.90
20881;DHT22;10600;53.096;8.802;2023-05-20T01:31:13;11.20;99.90
20881;DHT22;10600;53.096;8.802;2023-05-20T01:32:31;11.20;99.90
20881;DHT22;10600;53.096;8.802;2023-05-20T01:33:35;11.20;99.90
20881;DHT22;10600;53.096;8.802;2023-05-20T01:34:38;11.20;99.90
20881;DHT22;10600;53.096;8.802;2023-05-20T01:35:41;11.20;99.90
20881;DHT22;10600;53.096;8.802;2023-05-20T01:36:44;11.20;99.90
20881;DHT22;10600;53.096;8.802;2023-05-20T01:37:47;11.20;99.90
20881;DHT22;10600;53.096;8.802;2023-05-20T01:38:48;11.20;99.90
20881;DHT22;10600;53.096;8.802;2023-05-20T01:39:51;11.10;99.90
20881;DHT22;10600;53.096;8.802;2023-05-20T01:40:53;11.20;99.90
20881;DHT22;10600;53.096;8.802;2023-05-20T01:41:54;11.20;99.90
20881;DHT22;10600;53.096;8.802;2023-05-20T01:42:57;11.10;99.90
20881;DHT22;10600;53.096;8.802;2023-05-20T01:43:58;11.10;99.90
20881;DHT22;10600;53.096;8.802;2023-05-20T01:44:59;11.10;99.90
20881;DHT22;10600;53.096;8.802;2023-05-20T01:45:59;11.10;99.90
20881;DHT22;10600;53.096;8.802;2023-05-20T01:47:02;11.10;99.90
20881;DHT22;10600;53.096;8.802;2023-05-20T01:48:03;11.10;99.90
20881;DHT22;10600;53.096;8.802;2023-05-20T01:49:04;11.10;99.90
20881;DHT22;10600;53.096;8.802;2023-05-20T01:50:05;11.00;99.90
20881;DHT22;10600;53.096;8.802;2023-05-20T01:51:06;11.00;99.90
20881;DHT22;10600;53.096;8.802;2023-05-20T01:52:06;11.00;99.90
20881;DHT22;10600;53.096;8.802;2023-05-20T01:53:07;11.00;99.90
20881;DHT22;10600;53.096;8.802;2023-05-20T01:54:08;11.00;99.90
20881;DHT22;10600;53.096;8.802;2023-05-20T01:55:09;11.00;99.90
20881;DHT22;10600;53.096;8.802;2023-05-20T01:56:10;10.90;99.90
20881;DHT22;10600;53.096;8.802;2023-05-20T01:57:10;11.00;99.90
20881;DHT22;10600;53.096;8.802;2023-05-20T01:58:11;10.90;99.90
20881;DHT22;10600;53.096;8.802;2023-05-20T01:59:12;10.90;99.90
20881;DHT22;10600;53.096;8.802;2023-05-20T02:00:13;10.90;99.90
20881;DHT22;10600;53.096;8.802;2023-05-20T02:01:13;10.90;99.90
20881;DHT22;10600;53.096;8.802;2023-05-20T02:02:14;10.90;99.90
20881;DHT22;10600;53.096;8.802;2023-05-20T02:03:15;10.80;99.90
20881;DHT22;10600;53.096;8.802;2023-05-20T02:04:16;10.90;99.90
20881;DHT22;10600;53.096;8.802;2023-05-20T02:05:18;10.80;99.90
20881;DHT22;10600;53.096;8.802;2023-05-20T02:06:19;10.80;99.90
20881;DHT22;10600;53.096;8.802;2023-05-20T02:07:19;10.80;99.90
20881;DHT22;10600;53.096;8.802;2023-05-20T02:08:20;10.80;99.90
20881;DHT22;10600;53.096;8.802;2023-05-20T02:09:21;10.80;99.90
20881;DHT22;10600;53.096;8.802;2023-05-20T02:10:21;10.80;99.90
20881;DHT22;10600;53.096;8.802;2023-05-20T02:11:22;10.80;99.90
20881;DHT22;10600;53.096;8.802;2023-05-20T02:12:22;10.80;99.90
20881;DHT22;10600;53.096;8.802;2023-05-20T02:13:23;10.70;99.90
20881;DHT22;10600;53.096;8.802;2023-05-20T02:14:24;10.70;99.90
20881;DHT22;10600;53.096;8.802;2023-05-20T02:15:24;10.70;99.90
20881;DHT22;10600;53.096;8.802;2023-05-20T02:16:25;10.70;99.90
20881;DHT22;10600;53.096;8.802;2023-05-20T02:17:26;10.70;99.90
20881;DHT22;10600;53.096;8.802;2023-05-20T02:18:26;10.70;99.90
20881;DHT22;10600;53.096;8.802;2023-05-20T02:19:27;10.70;99.90
20881;DHT22;10600;53.096;8.802;2023-05-20T02:20:27;10.70;99.90
20881;DHT22;10600;53.096;8.802;2023-05-20T02:21:28;10.60;99.90
20881;DHT22;10600;53.096;8.802;2023-05-20T02:22:28;10.60;99.90
20881;DHT22;10600;53.096;8.802;2023-05-20T02:23:30;10.60;99.90
20881;DHT22;10600;53.096;8.802;2023-05-20T02:24:30;10.60;99.90
20881;DHT22;10600;53.096;8.802;2023-05-20T02:25:31;10.60;99.90
20881;DHT22;10600;53.096;8.802;2023-05-20T02:26:32;10.60;99.90
20881;DHT22;10600;53.096;8.802;2023-05-20T02:27:33;10.60;99.90
20881;DHT22;10600;53.096;8.802;2023-05-20T02:28:34;10.60;99.90
20881;DHT22;10600;53.096;8.802;2023-05-20T02:29:37;10.60;99.90
20881;DHT22;10600;53.096;8.802;2023-05-20T02:30:38;10.50;99.90
20881;DHT22;10600;53.096;8.802;2023-05-20T02:31:38;10.50;99.90
20881;DHT22;10600;53.096;8.802;2023-05-20T02:32:39;10.50;99.90
20881;DHT22;10600;53.096;8.802;2023-05-20T02:33:40;10.50;99.90
20881;DHT22;10600;53.096;8.802;2023-05-20T02:34:40;10.50;99.90
20881;DHT22;10600;53.096;8.802;2023-05-20T02:35:41;10.40;99.90
20881;DHT22;10600;53.096;8.802;2023-05-20T02:36:41;10.40;99.90
20881;DHT22;10600;53.096;8.802;2023-05-20T02:37:42;10.40;99.90
20881;DHT22;10600;53.096;8.802;2023-05-20T02:38:44;10.40;99.90
20881;DHT22;10600;53.096;8.802;2023-05-20T02:39:45;10.40;99.90
20881;DHT22;10600;53.096;8.802;2023-05-20T02:40:45;10.40;99.90
20881;DHT22;10600;53.096;8.802;2023-05-20T02:41:46;10.40;99.90
20881;DHT22;10600;53.096;8.802;2023-05-20T02:42:47;10.40;99.90
20881;DHT22;10600;53.096;8.802;2023-05-20T02:43:47;10.40;99.90
20881;DHT22;10600;53.096;8.802;2023-05-20T02:44:48;10.40;99.90
20881;DHT22;10600;53.096;8.802;2023-05-20T02:45:48;10.30;99.90
20881;DHT22;10600;53.096;8.802;2023-05-20T02:46:49;10.30;99.90
20881;DHT22;10600;53.096;8.802;2023-05-20T02:47:50;10.30;99.90
20881;DHT22;10600;53.096;8.802;2023-05-20T02:48:50;10.30;99.90
20881;DHT22;10600;53.096;8.802;2023-05-20T02:49:51;10.30;99.90
20881;DHT22;10600;53.096;8.802;2023-05-20T02:50:52;10.30;99.90
20881;DHT22;10600;53.096;8.802;2023-05-20T02:51:52;10.20;99.90
20881;DHT22;10600;53.096;8.802;2023-05-20T02:52:53;10.20;99.90
20881;DHT22;10600;53.096;8.802;2023-05-20T02:53:54;10.20;99.90
20881;DHT22;10600;53.096;8.802;2023-05-20T02:54:54;10.20;99.90
20881;DHT22;10600;53.096;8.802;2023-05-20T02:55:56;10.20;99.90
20881;DHT22;10600;53.096;8.802;2023-05-20T02:56:57;10.10;99.90
20881;DHT22;10600;53.096;8.802;2023-05-20T02:57:57;10.10;99.90
20881;DHT22;10600;53.096;8.802;2023-05-20T02:58:58;10.10;99.90
20881;DHT22;10600;53.096;8.802;2023-05-20T02:59:59;10.10;99.90
20881;DHT22;10600;53.096;8.802;2023-05-20T03:01:02;10.10;99.90
20881;DHT22;10600;53.096;8.802;2023-05-20T03:02:03;10.00;99.90
20881;DHT22;10600;53.096;8.802;2023-05-20T03:03:04;10.00;99.90
20881;DHT22;10600;53.096;8.802;2023-05-20T03:04:04;10.00;99.90
20881;DHT22;10600;53.096;8.802;2023-05-20T03:05:05;10.00;99.90
20881;DHT22;10600;53.096;8.802;2023-05-20T03:06:06;10.00;99.90
20881;DHT22;10600;53.096;8.802;2023-05-20T03:07:07;10.00;99.90
20881;DHT22;10600;53.096;8.802;2023-05-20T03:08:09;9.90;99.90
20881;DHT22;10600;53.096;8.802;2023-05-20T03:09:10;9.90;99.90
20881;DHT22;10600;53.096;8.802;2023-05-20T03:10:10;10.00;99.90
20881;DHT22;10600;53.096;8.802;2023-05-20T03:11:11;9.90;99.90
20881;DHT22;10600;53.096;8.802;2023-05-20T03:12:12;9.90;99.90
20881;DHT22;10600;53.096;8.802;2023-05-20T03:13:12;9.90;99.90
20881;DHT22;10600;53.096;8.802;2023-05-20T03:14:14;9.90;99.90
20881;DHT22;10600;53.096;8.802;2023-05-20T03:15:15;9.90;99.90
20881;DHT22;10600;53.096;8.802;2023-05-20T03:16:15;9.90;99.90
20881;DHT22;10600;53.096;8.802;2023-05-20T03:17:16;9.90;99.90
20881;DHT22;10600;53.096;8.802;2023-05-20T03:18:17;9.90;99.90
20881;DHT22;10600;53.096;8.802;2023-05-20T03:19:18;9.80;99.90
20881;DHT22;10600;53.096;8.802;2023-05-20T03:20:18;9.80;99.90
20881;DHT22;10600;53.096;8.802;2023-05-20T03:21:19;9.80;99.90
20881;DHT22;10600;53.096;8.802;2023-05-20T03:22:23;9.80;99.90
20881;DHT22;10600;53.096;8.802;2023-05-20T03:23:23;9.80;99.90
20881;DHT22;10600;53.096;8.802;2023-05-20T03:24:24;9.70;99.90
20881;DHT22;10600;53.096;8.802;2023-05-20T03:25:25;9.80;99.90
20881;DHT22;10600;53.096;8.802;2023-05-20T03:26:25;9.70;99.90
20881;DHT22;10600;53.096;8.802;2023-05-20T03:27:26;9.70;99.90
20881;DHT22;10600;53.096;8.802;2023-05-20T03:28:27;9.70;99.90
20881;DHT22;10600;53.096;8.802;2023-05-20T03:29:27;9.70;99.90
20881;DHT22;10600;53.096;8.802;2023-05-20T03:30:28;9.70;99.90
20881;DHT22;10600;53.096;8.802;2023-05-20T03:31:29;9.70;99.90
20881;DHT22;10600;53.096;8.802;2023-05-20T03:32:29;9.70;99.90
20881;DHT22;10600;53.096;8.802;2023-05-20T03:33:32;9.70;99.90
20881;DHT22;10600;53.096;8.802;2023-05-20T03:34:33;9.70;99.90
20881;DHT22;10600;53.096;8.802;2023-05-20T03:35:33;9.60;99.90
20881;DHT22;10600;53.096;8.802;2023-05-20T03:36:34;9.60;99.90
20881;DHT22;10600;53.096;8.802;2023-05-20T03:37:35;9.60;99.90
20881;DHT22;10600;53.096;8.802;2023-05-20T03:38:36;9.60;99.90
20881;DHT22;10600;53.096;8.802;2023-05-20T03:39:36;9.60;99.90
20881;DHT22;10600;53.096;8.802;2023-05-20T03:40:37;9.60;99.90
20881;DHT22;10600;53.096;8.802;2023-05-20T03:41:38;9.60;99.90
20881;DHT22;10600;53.096;8.802;2023-05-20T03:42:38;9.60;99.90
20881;DHT22;10600;53.096;8.802;2023-05-20T03:43:39;9.60;99.90
20881;DHT22;10600;53.096;8.802;2023-05-20T03:44:40;9.60;99.90
20881;DHT22;10600;53.096;8.802;2023-05-20T03:45:40;9.60;99.90
20881;DHT22;10600;53.096;8.802;2023-05-20T03:46:41;9.50;99.90
20881;DHT22;10600;53.096;8.802;2023-05-20T03:47:42;9.50;99.90
20881;DHT22;10600;53.096;8.802;2023-05-20T03:48:42;9.50;99.90
20881;DHT22;10600;53.096;8.802;2023-05-20T03:49:43;9.50;99.90
20881;DHT22;10600;53.096;8.802;2023-05-20T03:50:43;9.50;99.90
20881;DHT22;10600;53.096;8.802;2023-05-20T03:51:44;9.50;99.90
20881;DHT22;10600;53.096;8.802;2023-05-20T03:52:45;9.50;99.90
20881;DHT22;10600;53.096;8.802;2023-05-20T03:53:45;9.50;99.90
20881;DHT22;10600;53.096;8.802;2023-05-20T03:54:46;9.50;99.90
20881;DHT22;10600;53.096;8.802;2023-05-20T03:55:47;9.50;99.90
20881;DHT22;10600;53.096;8.802;2023-05-20T03:56:47;9.50;99.90
20881;DHT22;10600;53.096;8.802;2023-05-20T03:57:48;9.50;99.90
20881;DHT22;10600;53.096;8.802;2023-05-20T03:58:49;9.50;99.90
20881;DHT22;10600;53.096;8.802;2023-05-20T03:59:50;9.50;99.90
20881;DHT22;10600;53.096;8.802;2023-05-20T04:00:51;9.50;99.90
20881;DHT22;10600;53.096;8.802;2023-05-20T04:01:52;9.50;99.90
20881;DHT22;10600;53.096;8.802;2023-05-20T04:02:53;9.50;99.90
20881;DHT22;10600;53.096;8.802;2023-05-20T04:03:54;9.50;99.90
20881;DHT22;10600;53.096;8.802;2023-05-20T04:04:55;9.50;99.90
20881;DHT22;10600;53.096;8.802;2023-05-20T04:05:57;9.50;99.90
20881;DHT22;10600;53.096;8.802;2023-05-20T04:06:57;9.50;99.90
20881;DHT22;10600;53.096;8.802;2023-05-20T04:08:02;9.50;99.90
20881;DHT22;10600;53.096;8.802;2023-05-20T04:09:04;9.50;99.90
20881;DHT22;10600;53.096;8.802;2023-05-20T04:10:05;9.50;99.90
20881;DHT22;10600;53.096;8.802;2023-05-20T04:11:06;9.50;99.90
20881;DHT22;10600;53.096;8.802;2023-05-20T04:12:07;9.60;99.90
20881;DHT22;10600;53.096;8.802;2023-05-20T04:13:08;9.50;99.90
20881;DHT22;10600;53.096;8.802;2023-05-20T04:14:09;9.50;99.90
20881;DHT22;10600;53.096;8.802;2023-05-20T04:15:10;9.50;99.90
20881;DHT22;10600;53.096;8.802;2023-05-20T04:16:12;9.60;99.90
20881;DHT22;10600;53.096;8.802;2023-05-20T04:17:12;9.50;99.90
20881;DHT22;10600;53.096;8.802;2023-05-20T04:18:13;9.60;99.90
20881;DHT22;10600;53.096;8.802;2023-05-20T04:19:14;9.50;99.90
20881;DHT22;10600;53.096;8.802;2023-05-20T04:20:15;9.60;99.90
20881;DHT22;10600;53.096;8.802;2023-05-20T04:21:16;9.60;99.90
20881;DHT22;10600;53.096;8.802;2023-05-20T04:22:18;9.60;99.90
20881;DHT22;10600;53.096;8.802;2023-05-20T04:23:18;9.60;99.90
20881;DHT22;10600;53.096;8.802;2023-05-20T04:24:19;9.60;99.90
20881;DHT22;10600;53.096;8.802;2023-05-20T04:25:24;9.60;99.90
20881;DHT22;10600;53.096;8.802;2023-05-20T04:26:25;9.60;99.90
20881;DHT22;10600;53.096;8.802;2023-05-20T04:27:26;9.60;99.90
20881;DHT22;10600;53.096;8.802;2023-05-20T04:28:27;9.60;99.90
20881;DHT22;10600;53.096;8.802;2023-05-20T04:29:30;9.60;99.90
20881;DHT22;10600;53.096;8.802;2023-05-20T04:30:33;9.70;99.90
20881;DHT22;10600;53.096;8.802;2023-05-20T04:31:34;9.60;99.90
20881;DHT22;10600;53.096;8.802;2023-05-20T04:32:35;9.70;99.90
20881;DHT22;10600;53.096;8.802;2023-05-20T04:33:36;9.70;99.90
20881;DHT22;10600;53.096;8.802;2023-05-20T04:34:37;9.70;99.90
20881;DHT22;10600;53.096;8.802;2023-05-20T04:35:38;9.70;99.90
20881;DHT22;10600;53.096;8.802;2023-05-20T04:36:40;9.70;99.90
20881;DHT22;10600;53.096;8.802;2023-05-20T04:37:43;9.80;99.90
20881;DHT22;10600;53.096;8.802;2023-05-20T04:38:51;9.80;99.90
20881;DHT22;10600;53.096;8.802;2023-05-20T04:39:51;9.80;99.90
20881;DHT22;10600;53.096;8.802;2023-05-20T04:40:52;9.80;99.90
20881;DHT22;10600;53.096;8.802;2023-05-20T04:41:52;9.90;99.90
20881;DHT22;10600;53.096;8.802;2023-05-20T04:42:58;9.90;99.90
20881;DHT22;10600;53.096;8.802;2023-05-20T04:44:00;9.90;99.90
20881;DHT22;10600;53.096;8.802;2023-05-20T04:45:01;9.90;99.90
20881;DHT22;10600;53.096;8.802;2023-05-20T04:46:03;9.90;99.90
20881;DHT22;10600;53.096;8.802;2023-05-20T04:47:05;9.90;99.90
20881;DHT22;10600;53.096;8.802;2023-05-20T04:48:07;10.00;99.90
20881;DHT22;10600;53.096;8.802;2023-05-20T04:49:08;10.00;99.90
20881;DHT22;10600;53.096;8.802;2023-05-20T04:50:10;10.00;99.90
20881;DHT22;10600;53.096;8.802;2023-05-20T04:51:11;10.00;99.90
20881;DHT22;10600;53.096;8.802;2023-05-20T04:52:11;10.00;99.90
20881;DHT22;10600;53.096;8.802;2023-05-20T04:53:12;10.00;99.90
20881;DHT22;10600;53.096;8.802;2023-05-20T04:54:13;10.00;99.90
20881;DHT22;10600;53.096;8.802;2023-05-20T04:55:13;10.10;99.90
20881;DHT22;10600;53.096;8.802;2023-05-20T04:56:15;10.10;99.90
20881;DHT22;10600;53.096;8.802;2023-05-20T04:57:16;10.10;99.90
20881;DHT22;10600;53.096;8.802;2023-05-20T04:58:20;10.20;99.90
20881;DHT22;10600;53.096;8.802;2023-05-20T04:59:23;10.20;99.90
20881;DHT22;10600;53.096;8.802;2023-05-20T05:00:24;10.20;99.90
20881;DHT22;10600;53.096;8.802;2023-05-20T05:01:25;10.20;99.90
20881;DHT22;10600;53.096;8.802;2023-05-20T05:02:25;10.20;99.90
20881;DHT22;10600;53.096;8.802;2023-05-20T05:03:26;10.20;99.90
20881;DHT22;10600;53.096;8.802;2023-05-20T05:04:27;10.30;99.90
20881;DHT22;10600;53.096;8.802;2023-05-20T05:05:28;10.30;99.90
20881;DHT22;10600;53.096;8.802;2023-05-20T05:06:28;10.30;99.90
20881;DHT22;10600;53.096;8.802;2023-05-20T05:07:29;10.30;99.90
20881;DHT22;10600;53.096;8.802;2023-05-20T05:08:30;10.40;99.90
20881;DHT22;10600;53.096;8.802;2023-05-20T05:09:30;10.40;99.90
20881;DHT22;10600;53.096;8.802;2023-05-20T05:10:31;10.40;99.90
20881;DHT22;10600;53.096;8.802;2023-05-20T05:11:32;10.40;99.90
20881;DHT22;10600;53.096;8.802;2023-05-20T05:12:33;10.50;99.90
20881;DHT22;10600;53.096;8.802;2023-05-20T05:13:33;10.50;99.90
20881;DHT22;10600;53.096;8.802;2023-05-20T05:14:34;10.60;99.90
20881;DHT22;10600;53.096;8.802;2023-05-20T05:15:34;10.60;99.90
20881;DHT22;10600;53.096;8.802;2023-05-20T05:16:35;10.70;99.90
20881;DHT22;10600;53.096;8.802;2023-05-20T05:17:35;10.70;99.90
20881;DHT22;10600;53.096;8.802;2023-05-20T05:18:36;10.80;99.90
20881;DHT22;10600;53.096;8.802;2023-05-20T05:19:37;10.80;99.90
20881;DHT22;10600;53.096;8.802;2023-05-20T05:20:37;10.80;99.90
20881;DHT22;10600;53.096;8.802;2023-05-20T05:21:38;10.90;99.90
20881;DHT22;10600;53.096;8.802;2023-05-20T05:22:38;11.00;99.90
20881;DHT22;10600;53.096;8.802;2023-05-20T05:23:41;11.00;99.90
20881;DHT22;10600;53.096;8.802;2023-05-20T05:24:44;11.10;99.90
20881;DHT22;10600;53.096;8.802;2023-05-20T05:25:50;11.10;99.90
20881;DHT22;10600;53.096;8.802;2023-05-20T05:26:54;11.10;99.90
20881;DHT22;10600;53.096;8.802;2023-05-20T05:27:55;11.20;99.90
20881;DHT22;10600;53.096;8.802;2023-05-20T05:28:56;11.20;99.90
20881;DHT22;10600;53.096;8.802;2023-05-20T05:29:56;11.30;99.90
20881;DHT22;10600;53.096;8.802;2023-05-20T05:30:57;11.30;99.90
20881;DHT22;10600;53.096;8.802;2023-05-20T05:31:58;11.30;99.90
20881;DHT22;10600;53.096;8.802;2023-05-20T05:32:58;11.40;99.90
20881;DHT22;10600;53.096;8.802;2023-05-20T05:33:59;11.40;99.90
20881;DHT22;10600;53.096;8.802;2023-05-20T05:35:00;11.50;99.90
20881;DHT22;10600;53.096;8.802;2023-05-20T05:36:00;11.50;99.90
20881;DHT22;10600;53.096;8.802;2023-05-20T05:37:01;11.60;99.90
20881;DHT22;10600;53.096;8.802;2023-05-20T05:38:02;11.60;99.90
20881;DHT22;10600;53.096;8.802;2023-05-20T05:39:03;11.60;99.90
20881;DHT22;10600;53.096;8.802;2023-05-20T05:40:04;11.70;99.90
20881;DHT22;10600;53.096;8.802;2023-05-20T05:41:04;11.70;99.90
20881;DHT22;10600;53.096;8.802;2023-05-20T05:42:05;11.70;99.90
20881;DHT22;10600;53.096;8.802;2023-05-20T05:43:06;11.80;99.90
20881;DHT22;10600;53.096;8.802;2023-05-20T05:44:06;11.80;99.90
20881;DHT22;10600;53.096;8.802;2023-05-20T05:45:08;11.80;99.90
20881;DHT22;10600;53.096;8.802;2023-05-20T05:46:08;11.90;99.90
20881;DHT22;10600;53.096;8.802;2023-05-20T05:47:09;12.00;99.90
20881;DHT22;10600;53.096;8.802;2023-05-20T05:48:10;12.00;99.90
20881;DHT22;10600;53.096;8.802;2023-05-20T05:49:10;12.00;99.90
20881;DHT22;10600;53.096;8.802;2023-05-20T05:50:11;12.00;99.90
20881;DHT22;10600;53.096;8.802;2023-05-20T05:51:12;12.10;99.90
20881;DHT22;10600;53.096;8.802;2023-05-20T05:52:12;12.10;99.90
20881;DHT22;10600;53.096;8.802;2023-05-20T05:53:13;12.10;99.90
20881;DHT22;10600;53.096;8.802;2023-05-20T05:54:13;12.20;99.90
20881;DHT22;10600;53.096;8.802;2023-05-20T05:55:15;12.20;99.90
20881;DHT22;10600;53.096;8.802;2023-05-20T05:56:15;12.20;99.90
20881;DHT22;10600;53.096;8.802;2023-05-20T05:57:16;12.30;99.90
20881;DHT22;10600;53.096;8.802;2023-05-20T05:58:17;12.30;99.90
20881;DHT22;10600;53.096;8.802;2023-05-20T05:59:18;12.40;99.90
20881;DHT22;10600;53.096;8.802;2023-05-20T06:00:18;12.40;99.90
20881;DHT22;10600;53.096;8.802;2023-05-20T06:01:20;12.40;99.90
20881;DHT22;10600;53.096;8.802;2023-05-20T06:02:21;12.40;99.90
20881;DHT22;10600;53.096;8.802;2023-05-20T06:03:22;12.50;99.90
20881;DHT22;10600;53.096;8.802;2023-05-20T06:04:23;12.50;99.90
20881;DHT22;10600;53.096;8.802;2023-05-20T06:05:23;12.50;99.90
20881;DHT22;10600;53.096;8.802;2023-05-20T06:06:24;12.50;99.90
20881;DHT22;10600;53.096;8.802;2023-05-20T06:07:25;12.50;99.90
20881;DHT22;10600;53.096;8.802;2023-05-20T06:08:26;12.50;99.90
20881;DHT22;10600;53.096;8.802;2023-05-20T06:09:26;12.60;99.90
20881;DHT22;10600;53.096;8.802;2023-05-20T06:10:27;12.60;99.90
20881;DHT22;10600;53.096;8.802;2023-05-20T06:11:28;12.60;99.90
20881;DHT22;10600;53.096;8.802;2023-05-20T06:12:28;12.60;99.90
20881;DHT22;10600;53.096;8.802;2023-05-20T06:13:29;12.60;99.90
20881;DHT22;10600;53.096;8.802;2023-05-20T06:14:29;12.60;99.90
20881;DHT22;10600;53.096;8.802;2023-05-20T06:15:31;12.60;99.90
20881;DHT22;10600;53.096;8.802;2023-05-20T06:16:32;12.60;99.90
20881;DHT22;10600;53.096;8.802;2023-05-20T06:17:33;12.60;99.90
20881;DHT22;10600;53.096;8.802;2023-05-20T06:18:33;12.70;99.90
20881;DHT22;10600;53.096;8.802;2023-05-20T06:19:34;12.70;99.90
20881;DHT22;10600;53.096;8.802;2023-05-20T06:20:34;12.70;99.90
20881;DHT22;10600;53.096;8.802;2023-05-20T06:21:35;12.70;99.90
20881;DHT22;10600;53.096;8.802;2023-05-20T06:22:36;12.70;99.90
20881;DHT22;10600;53.096;8.802;2023-05-20T06:23:36;12.80;99.90
20881;DHT22;10600;53.096;8.802;2023-05-20T06:24:37;12.80;99.90
20881;DHT22;10600;53.096;8.802;2023-05-20T06:25:38;12.80;99.90
20881;DHT22;10600;53.096;8.802;2023-05-20T06:26:38;12.80;99.90
20881;DHT22;10600;53.096;8.802;2023-05-20T06:27:39;12.80;99.90
20881;DHT22;10600;53.096;8.802;2023-05-20T06:28:40;12.90;99.90